Flight Track Log - Related Links

Times and Time Zones

All times are in EDT time to prevent confusion due to time zone crossing. See the UAL1519 flight status page for this flight to view local times or setup timezone preferences in your user account.

Time Position Orientation Groundspeed Altitude Reporting Facility
EDT Latitude Longitude Course Direction KTS MPH feet Rate Location/Type
Sun 09:32:40 AM 40.6500 -74.1833 110° East 189 217 1,900  Level New York TRACON
Sun 09:33:46 AM 40.5833 -74.2333 210° Southwest 236 272 5,100 1,439 Climbing New York TRACON
Sun 09:35:00 AM 40.2133 -74.1500 180° South  Level FlightAware Approximate
Sun 09:35:31 AM 40.4856 -74.2475 186° South 252 290 6,000  Level New York Center
Sun 09:36:00 AM 40.0859 -74.1500 180° South  Level FlightAware Approximate
Sun 09:36:28 AM 40.4094 -74.2081 158° South 257 296 6,100  Level New York Center
Sun 09:37:00 AM 40.0439 -74.0045 123° Southeast  Level FlightAware Approximate
Sun 09:37:29 AM 40.3458 -74.1778 160° South 268 308 6,200  Level New York Center
Sun 09:38:00 AM 39.9971 -73.8503 110° East  Level FlightAware Approximate
Sun 09:38:28 AM 40.2608 -74.1625 172° South 268 308 9,600  Level New York Center
Sun 09:39:28 AM 40.1731 -74.1664 182° South 304 350 12,400 2,876 Climbing New York Center
Sun 09:40:29 AM 40.0889 -74.1217 158° South 329 379 15,400 2,678 Climbing New York Center
Sun 09:41:29 AM 40.0486 -74.0031 114° Southeast 311 358 17,800 2,331 Climbing New York Center
Sun 09:42:30 AM 40.0061 -73.8764 114° Southeast 347 399 20,100 2,269 Climbing New York Center
Sun 09:43:28 AM 39.9383 -73.7517 125° Southeast 382 440 22,300 1,424 Climbing New York Center
Sun 09:44:28 AM 39.8664 -73.6294 127° Southeast 408 470 22,900 300 Climbing New York Center
Sun 09:45:28 AM 39.7944 -73.5078 128° Southeast 428 493 22,900 100 Level New York Center
Sun 09:46:28 AM 39.7242 -73.3917 128° Southeast 421 484 23,100 1,082 Climbing New York Center
Sun 09:47:30 AM 39.6497 -73.2622 127° Southeast 427 491 25,100 1,820 Climbing New York Center
Sun 09:48:30 AM 39.5733 -73.1356 128° Southeast 433 498 26,800 1,600 Climbing New York Center
Sun 09:49:30 AM 39.4986 -73.0119 128° Southeast 463 533 28,300 1,424 Climbing New York Center
Sun 09:50:28 AM 39.4156 -72.8722 128° Southeast 479 551 29,600 1,220 Climbing New York Center
Sun 09:51:28 AM 39.3306 -72.7328 128° Southeast 487 560 30,700 1,190 Climbing New York Center
Sun 09:52:29 AM 39.2411 -72.5881 129° Southeast 502 578 32,000 1,377 Climbing New York Center
Sun 09:53:30 AM 39.1517 -72.4331 127° Southeast 519 597 33,500 1,412 Climbing New York Center
Sun 09:54:28 AM 39.0619 -72.2892 129° Southeast 519 597 34,800 1,525 Climbing New York Center
Sun 09:55:28 AM 38.9722 -72.1431 128° Southeast 525 604 36,500 1,041 Climbing New York Center
Sun 09:56:29 AM 38.8842 -71.9975 128° Southeast 520 598 36,900 246 Climbing New York Center
Sun 09:57:30 AM 38.7958 -71.8547 128° Southeast 515 593 37,000  Climbing New York Center
Sun 09:58:30 AM 38.7053 -71.7175 130° Southeast 516 594 36,900  Descending New York Center
Sun 09:59:28 AM 38.6208 -71.5756 127° Southeast 516 594 37,000 50 Climbing New York Center
Sun 10:00:29 AM 38.5344 -71.4339 128° Southeast 511 588 37,000  Level New York Center
Sun 10:01:30 AM 38.4453 -71.2925 129° Southeast 511 588 37,000  Level New York Center
Sun 10:02:30 AM 38.3564 -71.1539 129° Southeast 511 588 37,000 -50 Level New York Center
Sun 10:03:29 AM 38.2669 -71.0158 130° Southeast 511 588 36,900  Descending New York Center
Sun 10:04:31 AM 38.1819 -70.8650 126° Southeast 518 596 37,000 50 Climbing New York Center
Sun 10:05:28 AM 38.0922 -70.7383 132° Southeast 512 589 37,000  Level New York Center
Sun 10:06:30 AM 37.9983 -70.6036 131° Southeast 507 583 37,000  Level New York Center
Sun 10:07:29 AM 37.8792 -70.5119 149° Southeast 500 575 37,000  Level New York Center
Sun 10:08:11 AM 38.0000 -70.5833 153° Southeast 490 564 37,000  Level New York Oceanic (ODAPS)
Sun 10:08:29 AM 37.7497 -70.4386 153° Southeast 494 568 37,000  Level New York Center
Sun 10:09:30 AM 37.6267 -70.3553 152° Southeast 494 568 37,000  Level New York Center
Sun 10:10:30 AM 37.4992 -70.2853 156° South 499 574 37,000  Level New York Center
Sun 10:12:00 AM 37.3246 -70.1753 153° Southeast  Level FlightAware Approximate
Sun 10:19:00 AM 36.5087 -69.6689 153° Southeast  Level FlightAware Approximate
Sun 10:20:00 AM 36.3920 -69.5974 154° Southeast  Level FlightAware Approximate
Sun 10:21:00 AM 36.2752 -69.5262 154° Southeast  Level FlightAware Approximate
Sun 10:21:51 AM 36.1667 -69.4500 168° South 486 559 37,000  Level New York Oceanic (ODAPS)
Sun 10:22:00 AM 36.1584 -69.4551 154° Southeast  Level FlightAware Approximate
Sun 10:23:00 AM 36.0320 -69.4176 167° South  Level FlightAware Approximate
Sun 10:24:00 AM 35.9050 -69.3828 167° South  Level FlightAware Approximate
Sun 10:25:00 AM 35.7779 -69.3481 168° South  Level FlightAware Approximate
Sun 10:26:00 AM 35.6509 -69.3135 168° South  Level FlightAware Approximate
Sun 10:27:00 AM 35.5238 -69.2790 168° South  Level FlightAware Approximate
Sun 10:28:00 AM 35.2408 -69.2025 168° South 486 559 37,000  Level FlightAware Transoceanic
Sun 10:29:00 AM 35.1085 -69.1676 168° South 486 559 37,000  Level FlightAware Transoceanic
Sun 10:30:00 AM 34.9762 -69.1328 168° South 486 559 37,000  Level FlightAware Transoceanic
Sun 10:31:00 AM 34.8438 -69.0982 168° South 486 559 37,000  Level FlightAware Transoceanic
Sun 10:32:00 AM 34.7115 -69.0636 168° South 486 559 37,000  Level FlightAware Transoceanic
Sun 10:33:00 AM 34.5791 -69.0291 168° South 486 559 37,000  Level FlightAware Transoceanic
Sun 10:34:00 AM 34.4468 -68.9948 168° South 486 559 37,000  Level FlightAware Transoceanic
Sun 10:35:00 AM 34.3144 -68.9606 168° South 486 559 37,000  Level FlightAware Transoceanic
Sun 10:36:00 AM 34.1820 -68.9265 168° South 486 559 37,000  Level FlightAware Transoceanic
Sun 10:37:00 AM 34.0496 -68.8924 168° South 486 559 37,000  Level FlightAware Transoceanic
Sun 10:38:00 AM 33.9172 -68.8585 168° South 486 559 37,000  Level FlightAware Transoceanic
Sun 10:39:00 AM 33.7848 -68.8247 168° South 486 559 37,000  Level FlightAware Transoceanic
Sun 10:40:00 AM 33.6524 -68.7910 168° South 486 559 37,000  Level FlightAware Transoceanic
Sun 10:41:00 AM 33.5200 -68.7574 168° South 486 559 37,000  Level FlightAware Transoceanic
Sun 10:42:00 AM 33.3876 -68.7239 168° South 486 559 37,000  Level FlightAware Transoceanic
Sun 10:43:00 AM 33.2551 -68.6906 168° South 486 559 37,000  Level FlightAware Transoceanic
Sun 10:44:00 AM 33.1227 -68.6573 168° South 486 559 37,000  Level FlightAware Transoceanic
Sun 10:45:00 AM 32.9902 -68.6241 168° South 486 559 37,000  Level FlightAware Transoceanic
Sun 10:46:00 AM 32.8577 -68.5910 168° South 486 559 37,000  Level FlightAware Transoceanic
Sun 10:47:00 AM 32.7253 -68.5580 168° South 486 559 37,000  Level FlightAware Transoceanic
Sun 10:48:00 AM 32.5928 -68.5251 168° South 486 559 37,000  Level FlightAware Transoceanic
Sun 10:49:00 AM 32.4603 -68.4923 168° South 486 559 37,000  Level FlightAware Transoceanic
Sun 10:50:00 AM 32.3278 -68.4596 168° South 486 559 37,000  Level FlightAware Transoceanic
Sun 10:51:00 AM 32.1953 -68.4270 168° South 486 559 37,000  Level FlightAware Transoceanic
Sun 10:52:00 AM 32.0627 -68.3945 168° South 486 559 37,000  Level FlightAware Transoceanic
Sun 10:53:00 AM 31.9302 -68.3621 168° South 486 559 37,000  Level FlightAware Transoceanic
Sun 10:54:00 AM 31.7977 -68.3298 168° South 486 559 37,000  Level FlightAware Transoceanic
Sun 10:55:00 AM 31.6651 -68.2975 168° South 486 559 37,000  Level FlightAware Transoceanic
Sun 10:56:00 AM 31.5326 -68.2654 168° South 486 559 37,000  Level FlightAware Transoceanic
Sun 10:57:00 AM 31.4000 -68.2333 169° South 486 559 37,000  Level FlightAware Transoceanic
Sun 10:58:00 AM 31.2731 -68.2032 169° South 486 559 37,000  Level FlightAware Transoceanic
Sun 10:59:00 AM 31.1463 -68.1731 169° South 486 559 37,000  Level FlightAware Transoceanic
Sun 10:59:54 AM 31.4000 -68.2333 169° South 464 534 37,000  Level New York Oceanic (ODAPS)
Sun 11:00:00 AM 31.0194 -68.1431 169° South 486 559 37,000  Level FlightAware Transoceanic
Sun 11:01:00 AM 30.8925 -68.1132 169° South 486 559 37,000  Level FlightAware Transoceanic
Sun 11:02:00 AM 30.7657 -68.0834 169° South 486 559 37,000  Level FlightAware Transoceanic
Sun 11:03:00 AM 30.6388 -68.0536 169° South 486 559 37,000  Level FlightAware Transoceanic
Sun 11:04:00 AM 30.5119 -68.0239 169° South 486 559 37,000  Level FlightAware Transoceanic
Sun 11:05:00 AM 30.3850 -67.9943 169° South 486 559 37,000  Level FlightAware Transoceanic
Sun 11:06:00 AM 30.3850 -67.9943 169° South 464 534 37,000  Level FlightAware Transoceanic
Sun 11:07:00 AM 30.2581 -67.9648 169° South 464 534 37,000  Level FlightAware Transoceanic
Sun 11:08:00 AM 30.1311 -67.9353 169° South 464 534 37,000  Level FlightAware Transoceanic
Sun 11:09:00 AM 30.0042 -67.9060 169° South 464 534 37,000  Level FlightAware Transoceanic
Sun 11:10:00 AM 29.8773 -67.8767 169° South 464 534 37,000  Level FlightAware Transoceanic
Sun 11:11:00 AM 29.7504 -67.8475 169° South 464 534 37,000  Level FlightAware Transoceanic
Sun 11:12:00 AM 29.6234 -67.8183 169° South 464 534 37,000  Level FlightAware Transoceanic
Sun 11:13:00 AM 29.4965 -67.7892 169° South 464 534 37,000  Level FlightAware Transoceanic
Sun 11:14:00 AM 29.3695 -67.7602 169° South 464 534 37,000  Level FlightAware Transoceanic
Sun 11:15:00 AM 29.2426 -67.7313 169° South 464 534 37,000  Level FlightAware Transoceanic
Sun 11:16:00 AM 29.1156 -67.7024 169° South 464 534 37,000  Level FlightAware Transoceanic
Sun 11:17:00 AM 28.9886 -67.6737 169° South 464 534 37,000  Level FlightAware Transoceanic
Sun 11:18:00 AM 28.8617 -67.6449 169° South 464 534 37,000  Level FlightAware Transoceanic
Sun 11:19:00 AM 28.7347 -67.6163 169° South 464 534 37,000  Level FlightAware Transoceanic
Sun 11:20:00 AM 28.6077 -67.5877 169° South 464 534 37,000  Level FlightAware Transoceanic
Sun 11:21:00 AM 28.4807 -67.5592 169° South 464 534 37,000  Level FlightAware Transoceanic
Sun 11:22:00 AM 28.3537 -67.5307 169° South 464 534 37,000  Level FlightAware Transoceanic
Sun 11:23:00 AM 28.2267 -67.5024 169° South 464 534 37,000  Level FlightAware Transoceanic
Sun 11:24:00 AM 28.0996 -67.4741 169° South 464 534 37,000  Level FlightAware Transoceanic
Sun 11:25:00 AM 27.9726 -67.4458 169° South 464 534 37,000  Level FlightAware Transoceanic
Sun 11:26:00 AM 27.8456 -67.4177 169° South 464 534 37,000  Level FlightAware Transoceanic
Sun 11:27:00 AM 27.7186 -67.3896 169° South 464 534 37,000  Level FlightAware Transoceanic
Sun 11:28:00 AM 27.5915 -67.3615 169° South 464 534 37,000  Level FlightAware Transoceanic
Sun 11:29:00 AM 27.4645 -67.3335 169° South 464 534 37,000  Level FlightAware Transoceanic
Sun 11:30:00 AM 27.3375 -67.3056 169° South 464 534 37,000  Level FlightAware Transoceanic
Sun 11:31:00 AM 27.2104 -67.2778 169° South 464 534 37,000  Level FlightAware Transoceanic
Sun 11:32:00 AM 27.0833 -67.2500 158° South 464 534 37,000  Level FlightAware Transoceanic
Sun 11:33:00 AM 26.9650 -67.1975 158° South 464 534 37,000  Level FlightAware Transoceanic
Sun 11:34:00 AM 26.8467 -67.1452 158° South 464 534 37,000  Level FlightAware Transoceanic
Sun 11:35:00 AM 26.7284 -67.0930 159° South 464 534 37,000  Level FlightAware Transoceanic
Sun 11:35:12 AM 27.0833 -67.2500 158° South 456 525 37,000  Level New York Oceanic (ODAPS)
Sun 11:36:00 AM 26.6101 -67.0408 159° South 464 534 37,000  Level FlightAware Transoceanic
Sun 11:37:00 AM 26.4917 -66.9888 159° South 464 534 37,000  Level FlightAware Transoceanic
Sun 11:38:00 AM 26.3733 -66.9369 159° South 464 534 37,000  Level FlightAware Transoceanic
Sun 11:39:00 AM 26.2549 -66.8851 159° South 464 534 37,000  Level FlightAware Transoceanic
Sun 11:40:00 AM 26.1365 -66.8334 159° South 464 534 37,000  Level FlightAware Transoceanic
Sun 11:41:00 AM 26.1365 -66.8334 159° South 456 525 37,000  Level FlightAware Transoceanic
Sun 11:42:00 AM 26.0180 -66.7818 159° South 456 525 37,000  Level FlightAware Transoceanic
Sun 11:43:00 AM 25.8996 -66.7303 159° South 456 525 37,000  Level FlightAware Transoceanic
Sun 11:44:00 AM 25.7811 -66.6789 159° South 456 525 37,000  Level FlightAware Transoceanic
Sun 11:45:00 AM 25.6626 -66.6276 159° South 456 525 37,000  Level FlightAware Transoceanic
Sun 11:46:00 AM 25.5441 -66.5765 159° South 456 525 37,000  Level FlightAware Transoceanic
Sun 11:47:00 AM 25.4256 -66.5254 159° South 456 525 37,000  Level FlightAware Transoceanic
Sun 11:48:00 AM 25.3070 -66.4744 159° South 456 525 37,000  Level FlightAware Transoceanic
Sun 11:49:00 AM 25.1884 -66.4235 159° South 456 525 37,000  Level FlightAware Transoceanic
Sun 11:50:00 AM 25.0699 -66.3727 159° South 456 525 37,000  Level FlightAware Transoceanic
Sun 11:51:00 AM 24.9513 -66.3221 159° South 456 525 37,000  Level FlightAware Transoceanic
Sun 11:52:00 AM 24.8326 -66.2715 159° South 456 525 37,000  Level FlightAware Transoceanic
Sun 11:53:00 AM 24.7140 -66.2210 159° South 456 525 37,000  Level FlightAware Transoceanic
Sun 11:54:00 AM 24.5954 -66.1706 159° South 456 525 37,000  Level FlightAware Transoceanic
Sun 11:55:00 AM 24.4767 -66.1203 159° South 456 525 37,000  Level FlightAware Transoceanic
Sun 11:56:00 AM 24.3580 -66.0701 159° South 456 525 37,000  Level FlightAware Transoceanic
Sun 11:57:00 AM 24.2393 -66.0200 159° South 456 525 37,000  Level FlightAware Transoceanic
Sun 11:58:00 AM 24.1206 -65.9700 159° South 456 525 37,000  Level FlightAware Transoceanic
Sun 11:59:00 AM 24.0019 -65.9200 159° South 456 525 37,000  Level FlightAware Transoceanic
Sun 12:00:00 PM 23.8831 -65.8702 159° South 456 525 37,000  Level FlightAware Transoceanic
Sun 12:01:00 PM 23.7643 -65.8205 159° South 456 525 37,000  Level FlightAware Transoceanic
Sun 12:02:00 PM 23.6456 -65.7708 159° South 456 525 37,000  Level FlightAware Transoceanic
Sun 12:03:00 PM 23.5268 -65.7213 159° South 456 525 37,000  Level FlightAware Transoceanic
Sun 12:04:00 PM 23.4079 -65.6718 159° South 456 525 37,000  Level FlightAware Transoceanic
Sun 12:05:00 PM 23.2891 -65.6224 159° South 456 525 37,000  Level FlightAware Transoceanic
Sun 12:06:00 PM 23.1703 -65.5731 159° South 456 525 37,000  Level FlightAware Transoceanic
Sun 12:07:00 PM 23.0514 -65.5239 159° South 456 525 37,000  Level FlightAware Transoceanic
Sun 12:08:00 PM 22.9325 -65.4748 159° South 456 525 37,000  Level FlightAware Transoceanic
Sun 12:09:00 PM 22.8137 -65.4258 159° South 456 525 37,000  Level FlightAware Transoceanic
Sun 12:10:00 PM 22.6947 -65.3768 159° South 456 525 37,000  Level FlightAware Transoceanic
Sun 12:11:00 PM 22.5758 -65.3279 159° South 456 525 37,000  Level FlightAware Transoceanic
Sun 12:12:00 PM 22.4569 -65.2792 159° South 456 525 37,000  Level FlightAware Transoceanic
Sun 12:13:00 PM 22.3379 -65.2305 159° South 456 525 37,000  Level FlightAware Transoceanic
Sun 12:14:00 PM 22.2190 -65.1819 159° South 456 525 37,000  Level FlightAware Transoceanic
Sun 12:15:00 PM 22.1000 -65.1333 166° South 456 525 37,000  Level FlightAware Transoceanic
Sun 12:15:39 PM 22.0000 -65.1000 166° South 430 495 37,000  Level San Juan Center
Sun 12:16:00 PM 21.9771 -65.0998 166° South 456 525 37,000  Level FlightAware Transoceanic
Sun 12:16:40 PM 21.8833 -65.0667 165° South 440 506 37,000  Level San Juan Center
Sun 12:17:00 PM 21.8542 -65.0663 166° South 456 525 37,000  Level FlightAware Transoceanic
Sun 12:17:40 PM 21.7500 -65.0333 167° South 440 506 37,000  Level San Juan Center
Sun 12:18:00 PM 21.7313 -65.0329 166° South 456 525 37,000  Level FlightAware Transoceanic
Sun 12:18:40 PM 21.6333 -65.0000 165° South 440 506 37,000  Level San Juan Center
Sun 12:19:00 PM 21.6084 -64.9995 166° South 456 525 37,000  Level FlightAware Transoceanic
Sun 12:19:41 PM 21.5167 -65.0000 180° South 430 495 37,000  Level San Juan Center
Sun 12:20:00 PM 21.4855 -64.9662 166° South 456 525 37,000 -100 Level FlightAware Transoceanic
Sun 12:20:41 PM 21.4000 -65.0167 188° South 410 472 36,900  Descending San Juan Center
Sun 12:21:41 PM 21.3000 -65.0500 197° South 400 460 37,000 50 Climbing San Juan Center
Sun 12:22:42 PM 21.1667 -65.0500 180° South 390 449 37,000  Level San Juan Center
Sun 12:23:42 PM 21.0667 -65.0667 189° South 410 472 37,000  Level San Juan Center
Sun 12:24:42 PM 20.9500 -65.0833 188° South 400 460 37,000  Level San Juan Center
Sun 12:25:42 PM 20.8500 -65.1000 189° South 400 460 37,000  Level San Juan Center
Sun 12:26:43 PM 20.7333 -65.1167 188° South 410 472 37,000  Level San Juan Center
Sun 12:27:43 PM 20.6167 -65.1167 180° South 400 460 37,000  Level San Juan Center
Sun 12:28:43 PM 20.5000 -65.1333 188° South 410 472 37,000 -248 Level San Juan Center
Sun 12:29:44 PM 20.3833 -65.1500 188° South 410 472 36,500 -645 Descending San Juan Center
Sun 12:30:44 PM 20.2667 -65.1667 188° South 400 460 35,700 -950 Descending San Juan Center
Sun 12:31:44 PM 20.1500 -65.1833 188° South 420 483 34,600 -950 Descending San Juan Center
Sun 12:32:44 PM 20.0333 -65.2000 188° South 430 495 33,800 -942 Descending San Juan Center
Sun 12:33:45 PM 19.9167 -65.2000 180° South 420 483 32,700 -992 Descending San Juan Center
Sun 12:34:45 PM 19.8000 -65.2167 188° South 440 506 31,800 -950 Descending San Juan Center
Sun 12:35:45 PM 19.6667 -65.2333 187° South 440 506 30,800 -1,140 Descending San Juan Center
Sun 12:36:46 PM 19.5500 -65.2500 188° South 440 506 29,500 -1,983 Descending San Juan Center
Sun 12:37:46 PM 19.4333 -65.2667 188° South 420 483 26,800 -2,450 Descending San Juan Center
Sun 12:38:46 PM 19.3167 -65.2833 188° South 410 472 24,600 -2,231 Descending San Juan Center
Sun 12:39:47 PM 19.2167 -65.3000 189° South 400 460 22,300 -2,231 Descending San Juan Center
Sun 12:40:47 PM 19.0833 -65.3000 180° South 380 437 20,100 -2,200 Descending San Juan Center
Sun 12:41:47 PM 18.9833 -65.3167 189° South 370 426 17,900 -2,250 Descending San Juan Center
Sun 12:42:47 PM 18.8833 -65.3333 189° South 370 426 15,600 -2,231 Descending San Juan Center
Sun 12:43:48 PM 18.7833 -65.3500 189° South 360 414 13,400 -2,281 Descending San Juan Center
Sun 12:44:48 PM 18.6833 -65.3500 180° South 350 403 11,000 -1,300 Descending San Juan Center
Sun 12:45:48 PM 18.6167 -65.3000 145° Southeast 320 368 10,800 -992 Descending San Juan Center
Sun 12:46:49 PM 18.5333 -65.2500 150° Southeast 300 345 9,000 -1,388 Descending San Juan Center
Sun 12:47:49 PM 18.4667 -65.2333 167° South 250 288 8,000 -1,600 Descending San Juan Center
Sun 12:48:49 PM 18.4167 -65.2000 148° Southeast 230 265 5,800 -2,083 Descending San Juan Center
Sun 12:49:50 PM 18.3500 -65.1833 167° South 220 253 3,800 -1,686 Descending San Juan Center
Sun 12:50:50 PM 18.3167 -65.1333 125° Southeast 220 253 2,400 -900 Descending San Juan Center
Sun 12:51:50 PM 18.3333 -65.0833 71° East 180 207 2,000 -400 Descending San Juan Center

Login

Don't have an account? Register now (free) for customized features, flight alerts, and more!